Time;durP1;ratioP1;P1;durP2;ratioP2;P2;SDS_P1;SDS_P2;PMS_P1;PMS_P2;Temp;Humidity;BMP_temperature;BMP_pressure;BME280_temperature;BME280_humidity;BME280_pressure;Samples;Min_cycle;Max_cycle;Signal;HPM_P1;HPM_P2
2023/12/26 00:00:11;;;;;;;0.95;0.55;;;;;;;18.81;51.64;100534.69;5067195;28;20458;-69
2023/12/26 00:02:36;;;;;;;0.57;0.40;;;;;;;18.84;51.70;100541.53;5066645;28;20050;-68
2023/12/26 00:05:04;;;;;;;2.03;0.50;;;;;;;18.91;51.72;100549.75;5066861;28;20025;-70
2023/12/26 00:07:29;;;;;;;0.50;0.38;;;;;;;18.90;51.69;100546.28;5067492;28;20024;-69
2023/12/26 00:09:54;;;;;;;1.38;0.40;;;;;;;18.90;51.36;100550.69;5066688;28;20040;-69
2023/12/26 00:12:20;;;;;;;0.88;0.45;;;;;;;18.78;51.36;100540.22;5067232;28;20021;-69
2023/12/26 00:14:45;;;;;;;1.90;0.40;;;;;;;18.88;51.63;100553.47;5066902;28;20033;-68
2023/12/26 00:17:11;;;;;;;1.90;0.40;;;;;;;18.83;51.47;100545.09;5066583;28;20044;-69
2023/12/26 00:19:36;;;;;;;1.45;0.60;;;;;;;18.75;51.51;100523.84;5066939;28;20028;-70
2023/12/26 00:22:02;;;;;;;0.88;0.40;;;;;;;18.73;51.48;100525.78;5066981;28;20589;-68
2023/12/26 00:24:27;;;;;;;0.40;0.30;;;;;;;18.77;51.40;100529.81;5066750;28;20473;-70
2023/12/26 00:26:52;;;;;;;0.70;0.50;;;;;;;18.83;51.46;100540.69;5066864;28;20064;-70
2023/12/26 00:29:18;;;;;;;0.85;0.40;;;;;;;18.76;51.41;100525.53;5066963;28;20040;-68
2023/12/26 00:31:43;;;;;;;1.40;0.50;;;;;;;18.81;51.42;100537.31;5066371;28;20024;-70
2023/12/26 00:34:09;;;;;;;1.42;0.50;;;;;;;18.78;51.42;100529.66;5065929;28;20036;-69
2023/12/26 00:36:34;;;;;;;1.63;0.50;;;;;;;18.79;51.23;100534.00;5066062;28;20032;-69
2023/12/26 00:38:59;;;;;;;0.85;0.57;;;;;;;18.81;51.69;100537.31;5065839;28;20412;-70
2023/12/26 00:41:25;;;;;;;1.50;0.50;;;;;;;18.72;51.29;100532.84;5066050;28;20037;-70
2023/12/26 00:43:51;;;;;;;0.82;0.43;;;;;;;18.74;51.27;100536.22;5066193;28;20025;-70
2023/12/26 00:46:18;;;;;;;1.15;0.50;;;;;;;18.77;51.31;100543.00;5066369;28;20032;-69
2023/12/26 00:48:44;;;;;;;1.40;0.40;;;;;;;18.78;51.33;100544.69;5065804;28;20500;-70
2023/12/26 00:51:09;;;;;;;0.88;0.43;;;;;;;18.66;51.51;100538.69;5065570;28;20060;-71
2023/12/26 00:53:35;;;;;;;2.60;0.40;;;;;;;18.76;51.45;100559.84;5065874;28;20051;-69
2023/12/26 00:56:00;;;;;;;1.55;0.40;;;;;;;18.77;51.43;100562.34;5065635;28;20058;-69
2023/12/26 00:58:26;;;;;;;0.75;0.38;;;;;;;18.75;51.38;100558.97;5065979;28;20048;-69
2023/12/26 01:00:51;;;;;;;0.60;0.30;;;;;;;18.65;51.33;100551.03;5065575;28;20044;-70
2023/12/26 01:03:16;;;;;;;0.93;0.40;;;;;;;18.72;51.14;100564.53;5064154;28;20039;-69
2023/12/26 01:05:42;;;;;;;0.32;0.30;;;;;;;18.71;51.16;100559.38;5047431;28;20032;-69
2023/12/26 01:08:09;;;;;;;0.88;0.50;;;;;;;18.73;51.36;100576.78;5064481;28;20028;-69
2023/12/26 01:10:34;;;;;;;1.33;0.40;;;;;;;18.65;51.42;100558.13;5065303;28;20033;-70
2023/12/26 01:13:00;;;;;;;1.48;0.60;;;;;;;18.63;51.41;100557.44;5065817;28;20046;-70
2023/12/26 01:15:25;;;;;;;0.77;0.40;;;;;;;18.71;51.36;100562.88;5065520;28;20035;-69
2023/12/26 01:17:50;;;;;;;1.20;0.50;;;;;;;18.67;51.33;100567.59;5047640;28;20392;-69
2023/12/26 01:20:16;;;;;;;0.80;0.40;;;;;;;18.68;51.32;100569.25;5065570;28;20040;-69
2023/12/26 01:22:42;;;;;;;0.50;0.30;;;;;;;18.52;51.30;100547.81;5066087;28;20040;-69
2023/12/26 01:25:07;;;;;;;1.13;0.43;;;;;;;18.68;51.31;100581.63;5066425;28;20056;-71
2023/12/26 01:27:33;;;;;;;0.80;0.40;;;;;;;18.67;51.29;100567.59;5070074;28;21736;-69
2023/12/26 01:30:01;;;;;;;0.57;0.40;;;;;;;18.68;51.22;100578.97;5069913;28;20032;-70
2023/12/26 01:32:27;;;;;;;0.52;0.30;;;;;;;18.62;51.16;100572.44;5069977;28;20047;-70
2023/12/26 01:34:53;;;;;;;1.08;0.50;;;;;;;18.55;51.10;100568.66;5070012;28;20036;-70
2023/12/26 01:37:18;;;;;;;2.47;0.47;;;;;;;18.57;51.31;100577.28;5070245;28;20560;-70
2023/12/26 01:39:43;;;;;;;1.20;0.40;;;;;;;18.59;51.23;100591.16;5069607;28;20115;-67
2023/12/26 01:42:09;;;;;;;1.17;0.40;;;;;;;18.63;51.09;100604.97;5070205;28;20060;-70
2023/12/26 01:44:34;;;;;;;1.15;0.40;;;;;;;18.55;51.24;100586.28;5069986;28;20525;-67
2023/12/26 01:47:00;;;;;;;0.50;0.30;;;;;;;18.60;51.15;100590.22;5069399;28;20060;-68
2023/12/26 01:49:26;;;;;;;0.50;0.40;;;;;;;18.63;51.25;100604.97;5070147;28;20058;-69
2023/12/26 01:51:52;;;;;;;0.60;0.22;;;;;;;18.54;51.14;100595.19;5069845;28;20028;-69
2023/12/26 01:54:18;;;;;;;0.47;0.40;;;;;;;18.52;51.27;100594.47;5069594;28;20032;-69
2023/12/26 01:56:43;;;;;;;0.57;0.43;;;;;;;18.59;51.27;100600.91;5069828;28;20028;-69
2023/12/26 01:59:09;;;;;;;0.50;0.35;;;;;;;18.60;51.25;100613.13;5069730;28;20051;-69
2023/12/26 02:01:35;;;;;;;0.60;0.47;;;;;;;18.51;51.33;100604.19;5069541;28;20024;-70
2023/12/26 02:04:01;;;;;;;0.43;0.30;;;;;;;18.56;51.36;100614.34;5067492;28;20033;-70
2023/12/26 02:06:29;;;;;;;0.60;0.32;;;;;;;18.58;50.96;100620.34;5069810;28;20870;-68
2023/12/26 02:08:56;;;;;;;0.55;0.40;;;;;;;18.50;51.02;100599.91;5069575;28;20078;-69
2023/12/26 02:11:21;;;;;;;0.50;0.40;;;;;;;18.57;51.09;100613.41;5069394;28;20538;-70
2023/12/26 02:13:47;;;;;;;1.00;0.55;;;;;;;18.57;51.10;100619.50;5068935;28;20033;-68
2023/12/26 02:16:18;;;;;;;1.33;0.40;;;;;;;18.55;51.11;100628.50;5069232;28;20029;-70
2023/12/26 02:18:43;;;;;;;0.57;0.40;;;;;;;18.52;51.22;100620.84;5068651;28;20024;-70
2023/12/26 02:21:09;;;;;;;0.50;0.40;;;;;;;18.54;51.20;100625.03;5068580;28;20078;-69
2023/12/26 02:23:36;;;;;;;0.65;0.40;;;;;;;18.53;51.15;100627.81;5068835;28;20031;-70
2023/12/26 02:26:03;;;;;;;0.98;0.40;;;;;;;18.52;51.05;100624.34;5068604;28;20400;-68
2023/12/26 02:28:30;;;;;;;0.60;0.35;;;;;;;18.46;51.17;100625.69;5068849;28;20036;-70
2023/12/26 02:30:56;;;;;;;0.80;0.50;;;;;;;18.45;51.29;100626.69;5068202;28;20029;-70
2023/12/26 02:33:22;;;;;;;0.40;0.40;;;;;;;18.45;51.12;100624.06;5068341;28;20373;-68
2023/12/26 02:35:48;;;;;;;0.73;0.35;;;;;;;18.44;51.10;100621.53;5068610;28;20032;-68
2023/12/26 02:38:13;;;;;;;0.88;0.40;;;;;;;18.48;51.25;100636.13;5067423;28;20036;-69
2023/12/26 02:40:38;;;;;;;1.40;0.40;;;;;;;18.49;51.27;100633.34;5068736;28;20133;-67
2023/12/26 02:43:04;;;;;;;0.40;0.40;;;;;;;18.51;51.14;100627.13;5068425;28;20033;-69
2023/12/26 02:45:29;;;;;;;0.30;0.30;;;;;;;18.46;51.06;100623.06;5068508;28;20025;-69
2023/12/26 02:47:54;;;;;;;0.57;0.40;;;;;;;18.48;51.14;100626.44;5060792;28;20481;-69
2023/12/26 02:50:20;;;;;;;0.65;0.35;;;;;;;18.41;51.17;100619.16;5047709;28;20033;-69
2023/12/26 02:52:45;;;;;;;0.65;0.40;;;;;;;18.46;51.00;100628.34;5047619;28;20152;-69
2023/12/26 02:55:11;;;;;;;0.30;0.30;;;;;;;18.47;51.09;100631.84;5047829;28;20044;-69
2023/12/26 02:57:36;;;;;;;1.13;0.43;;;;;;;18.41;51.07;100619.16;5048410;28;20044;-69
2023/12/26 03:00:02;;;;;;;0.47;0.40;;;;;;;18.42;51.28;100634.88;5047613;28;20033;-69
2023/12/26 03:02:28;;;;;;;1.88;0.40;;;;;;;18.43;51.27;100633.88;5046896;28;20389;-68
2023/12/26 03:04:53;;;;;;;1.30;0.45;;;;;;;18.46;51.10;100638.91;5047960;28;20044;-68
2023/12/26 03:07:19;;;;;;;1.48;0.40;;;;;;;18.44;51.32;100640.00;5047932;28;20029;-69
2023/12/26 03:09:45;;;;;;;1.27;0.43;;;;;;;18.38;51.17;100657.19;5047945;28;20120;-69
2023/12/26 03:12:10;;;;;;;0.60;0.40;;;;;;;18.44;51.11;100664.59;5048057;28;20235;-68
2023/12/26 03:14:35;;;;;;;1.13;0.45;;;;;;;18.43;50.98;100662.06;5047560;28;20392;-69
2023/12/26 03:17:01;;;;;;;0.88;0.45;;;;;;;18.41;51.06;100656.09;5047936;28;20036;-69
2023/12/26 03:19:26;;;;;;;0.52;0.30;;;;;;;18.35;51.24;100662.72;5029447;28;21249;-69
2023/12/26 03:21:51;;;;;;;1.33;0.47;;;;;;;18.42;51.04;100673.59;5047295;28;20377;-69
2023/12/26 03:24:17;;;;;;;1.58;0.55;;;;;;;18.39;50.95;100672.06;5014230;28;20416;-69
2023/12/26 03:26:42;;;;;;;0.30;0.30;;;;;;;18.30;51.27;100667.56;5048004;28;20037;-70
2023/12/26 03:29:07;;;;;;;1.00;0.50;;;;;;;18.39;51.04;100687.03;5047387;28;20032;-68
2023/12/26 03:31:33;;;;;;;0.68;0.40;;;;;;;18.32;51.18;100673.53;5047770;28;20056;-68
2023/12/26 03:33:58;;;;;;;0.85;0.47;;;;;;;18.38;51.05;100688.84;5047243;28;20041;-67
2023/12/26 03:36:23;;;;;;;0.77;0.50;;;;;;;18.32;50.90;100676.19;5046886;28;20037;-68
2023/12/26 03:38:49;;;;;;;0.70;0.40;;;;;;;18.28;50.97;100667.69;5047342;28;20170;-70
2023/12/26 03:41:14;;;;;;;1.80;0.60;;;;;;;18.36;51.01;100680.25;5047156;28;20028;-69
2023/12/26 03:43:40;;;;;;;1.45;0.50;;;;;;;18.28;50.96;100675.59;5047107;28;20125;-69
2023/12/26 03:46:06;;;;;;;0.65;0.40;;;;;;;18.30;50.81;100678.13;5047321;28;20144;-68
2023/12/26 03:48:31;;;;;;;0.80;0.50;;;;;;;18.37;51.13;100687.16;5059504;28;20048;-68
2023/12/26 03:50:57;;;;;;;1.02;0.50;;;;;;;18.37;51.02;100683.72;5067473;28;20024;-68
2023/12/26 03:53:22;;;;;;;1.85;0.60;;;;;;;18.35;51.05;100690.94;5067586;28;20055;-69
2023/12/26 03:55:47;;;;;;;1.63;0.60;;;;;;;18.37;51.03;100702.19;5067497;28;20040;-68
2023/12/26 03:58:13;;;;;;;0.47;0.40;;;;;;;18.27;50.94;100694.19;5067618;28;20035;-68
2023/12/26 04:00:38;;;;;;;0.50;0.40;;;;;;;18.37;50.89;100712.72;5066924;28;20094;-70
2023/12/26 04:03:04;;;;;;;1.40;0.60;;;;;;;18.34;50.90;100710.34;5065824;28;20064;-69
2023/12/26 04:05:29;;;;;;;0.80;0.47;;;;;;;18.25;50.90;100696.97;5066859;28;20047;-69
2023/12/26 04:07:54;;;;;;;1.92;0.60;;;;;;;18.33;50.73;100713.97;5067349;28;20082;-68
2023/12/26 04:10:20;;;;;;;0.85;0.50;;;;;;;18.23;51.05;100703.31;5067386;28;20032;-68
2023/12/26 04:12:45;;;;;;;0.98;0.40;;;;;;;18.30;51.02;100733.53;5066875;28;20086;-68
2023/12/26 04:15:11;;;;;;;2.00;0.60;;;;;;;18.22;50.85;100728.88;5066965;28;20028;-70
2023/12/26 04:17:36;;;;;;;1.80;0.57;;;;;;;18.33;50.85;100743.00;5066818;28;20043;-68
2023/12/26 04:20:02;;;;;;;1.27;0.52;;;;;;;18.30;50.83;100739.63;5066567;28;20436;-69
2023/12/26 04:22:28;;;;;;;1.30;0.40;;;;;;;18.30;50.68;100747.53;5066190;28;20386;-69
2023/12/26 04:24:53;;;;;;;2.30;0.60;;;;;;;18.31;50.80;100745.75;5066511;28;20149;-70
2023/12/26 04:27:18;;;;;;;1.92;0.50;;;;;;;18.30;50.59;100747.53;5048279;28;20536;-70
2023/12/26 04:29:44;;;;;;;2.65;0.70;;;;;;;18.30;50.67;100749.34;5066422;28;20028;-68
2023/12/26 04:32:10;;;;;;;2.03;0.60;;;;;;;18.22;50.79;100730.69;5066517;28;20060;-68
2023/12/26 04:34:40;;;;;;;1.88;0.70;;;;;;;18.18;50.90;100734.53;5066548;28;20024;-68
2023/12/26 04:37:05;;;;;;;1.88;0.70;;;;;;;18.26;50.91;100750.56;5066571;28;20016;-67
2023/12/26 04:39:31;;;;;;;1.80;0.57;;;;;;;18.23;50.80;100735.84;5066667;28;20116;-67
2023/12/26 04:41:57;;;;;;;2.42;0.70;;;;;;;18.26;50.77;100747.91;5066739;28;20024;-68
2023/12/26 04:44:23;;;;;;;2.75;0.63;;;;;;;18.26;50.60;100769.88;5066438;28;20075;-68
2023/12/26 04:46:50;;;;;;;1.95;0.70;;;;;;;18.26;50.71;100775.16;5066599;28;20090;-69
2023/12/26 04:49:16;;;;;;;1.60;0.60;;;;;;;18.20;50.70;100773.03;5046985;28;20055;-68
2023/12/26 04:51:41;;;;;;;2.65;0.80;;;;;;;18.23;50.82;100779.81;5045971;28;20521;-68
2023/12/26 04:54:06;;;;;;;2.15;0.60;;;;;;;18.25;50.55;100784.03;5044842;28;20037;-69
2023/12/26 04:56:32;;;;;;;2.53;0.60;;;;;;;18.16;50.69;100765.47;5046215;28;20489;-69
2023/12/26 04:58:57;;;;;;;2.30;0.68;;;;;;;18.24;50.64;100781.50;5045526;28;20029;-68
2023/12/26 05:01:23;;;;;;;2.63;0.77;;;;;;;18.13;50.62;100775.34;5045391;28;20472;-68
2023/12/26 05:03:48;;;;;;;3.05;0.82;;;;;;;18.16;50.57;100791.88;5044032;28;20033;-67
2023/12/26 05:06:18;;;;;;;1.42;0.60;;;;;;;18.15;50.69;100800.72;5045346;28;20032;-69
2023/12/26 05:08:44;;;;;;;3.25;0.90;;;;;;;18.16;50.52;100812.97;5045266;28;20065;-69
2023/12/26 05:11:21;;;;;;;4.10;0.85;;;;;;;18.17;50.27;100822.56;5045742;28;20057;-70
2023/12/26 05:13:46;;;;;;;2.63;0.70;;;;;;;18.23;50.50;100837.84;5045717;28;20040;-69
2023/12/26 05:16:12;;;;;;;3.28;0.95;;;;;;;18.14;50.48;100813.09;5019418;28;20123;-71
2023/12/26 05:18:37;;;;;;;1.92;0.50;;;;;;;18.12;50.24;100818.50;5045814;28;20040;-69
2023/12/26 05:21:02;;;;;;;2.30;0.57;;;;;;;18.17;50.39;100817.28;5046170;28;20029;-66
2023/12/26 05:23:27;;;;;;;2.78;0.60;;;;;;;18.20;50.16;100831.06;5046227;28;20036;-68
2023/12/26 05:25:53;;;;;;;3.00;0.55;;;;;;;18.19;50.25;100839.09;5045609;28;20120;-67
2023/12/26 05:28:18;;;;;;;4.75;0.88;;;;;;;18.16;50.14;100841.97;5045889;28;20113;-68
2023/12/26 05:30:44;;;;;;;2.80;0.63;;;;;;;18.20;50.16;100861.84;5045481;28;20473;-68
2023/12/26 05:33:09;;;;;;;3.22;0.93;;;;;;;18.18;49.80;100859.34;5046167;28;20515;-67
2023/12/26 05:35:34;;;;;;;3.75;0.98;;;;;;;18.18;50.11;100861.16;5045826;28;20033;-68
2023/12/26 05:38:00;;;;;;;3.72;0.88;;;;;;;18.09;49.89;100860.09;5045732;28;20025;-68
2023/12/26 05:40:26;;;;;;;3.85;0.77;;;;;;;18.19;49.98;100865.47;5046037;28;20036;-68
2023/12/26 05:42:51;;;;;;;4.20;0.90;;;;;;;18.12;49.73;100858.03;5046104;28;20090;-68
2023/12/26 05:45:17;;;;;;;3.47;0.75;;;;;;;18.11;50.03;100868.72;5046213;28;20087;-67
2023/12/26 05:47:43;;;;;;;2.78;0.70;;;;;;;18.20;49.67;100875.03;5051208;28;20167;-69
2023/12/26 05:50:09;;;;;;;3.05;0.75;;;;;;;18.07;49.76;100870.78;5066129;28;20033;-69
2023/12/26 05:52:34;;;;;;;4.15;0.90;;;;;;;18.19;49.70;100902.41;5066222;28;20459;-69
2023/12/26 05:54:59;;;;;;;4.03;0.68;;;;;;;18.09;49.52;100894.38;5065761;28;20036;-69
2023/12/26 05:57:25;;;;;;;3.08;0.75;;;;;;;18.15;49.41;100911.50;5066091;28;20048;-69
2023/12/26 05:59:53;;;;;;;3.45;0.70;;;;;;;18.08;49.55;100905.88;5065309;28;20493;-67
2023/12/26 06:02:18;;;;;;;4.25;0.90;;;;;;;18.08;49.29;100908.53;5065161;28;20090;-68
2023/12/26 06:04:43;;;;;;;2.45;0.60;;;;;;;18.17;49.43;100923.63;5065856;28;20024;-68
2023/12/26 06:07:09;;;;;;;2.92;0.88;;;;;;;18.16;49.35;100924.56;5066396;28;20037;-69
2023/12/26 06:09:34;;;;;;;3.25;0.70;;;;;;;18.15;49.41;100927.31;5065702;28;20033;-68
2023/12/26 06:11:59;;;;;;;2.10;0.50;;;;;;;18.06;49.43;100911.28;5068178;28;20028;-69
2023/12/26 06:14:25;;;;;;;2.35;0.88;;;;;;;18.07;49.22;100904.19;5069462;28;20465;-69
2023/12/26 06:16:50;;;;;;;2.63;0.70;;;;;;;18.09;49.07;100932.13;5069511;28;20457;-69
2023/12/26 06:19:15;;;;;;;3.05;0.90;;;;;;;18.04;49.22;100925.53;5068987;28;20035;-67
2023/12/26 06:21:41;;;;;;;3.75;0.60;;;;;;;18.05;49.13;100929.88;5069446;28;20515;-67
2023/12/26 06:24:08;;;;;;;3.28;0.70;;;;;;;18.04;49.12;100944.88;5069212;28;20063;-69
2023/12/26 06:26:33;;;;;;;3.90;0.90;;;;;;;18.05;49.02;100950.97;5068857;28;20024;-69
2023/12/26 06:28:59;;;;;;;2.85;0.70;;;;;;;18.14;49.45;100976.63;5069506;28;20028;-69
2023/12/26 06:31:24;;;;;;;2.90;0.63;;;;;;;18.17;49.45;100983.47;5068644;28;20512;-70
2023/12/26 06:33:49;;;;;;;2.40;0.77;;;;;;;18.12;49.53;100984.66;5069271;28;20127;-67
2023/12/26 06:36:15;;;;;;;1.42;0.40;;;;;;;18.20;49.59;100999.88;5069038;28;20119;-68
2023/12/26 06:38:40;;;;;;;1.63;0.55;;;;;;;18.18;49.58;100998.31;5069018;28;20107;-69
2023/12/26 06:41:06;;;;;;;2.53;0.90;;;;;;;18.16;49.69;100987.03;5069031;28;20032;-69
2023/12/26 06:43:32;;;;;;;3.40;0.70;;;;;;;18.19;49.46;100992.91;5069078;28;20036;-69
2023/12/26 06:45:57;;;;;;;1.80;0.60;;;;;;;18.23;49.45;100985.59;5068932;28;20429;-69
2023/12/26 06:48:22;;;;;;;2.08;0.60;;;;;;;18.18;49.39;100972.75;5068770;28;20067;-68
2023/12/26 06:50:49;;;;;;;3.25;0.68;;;;;;;18.22;49.33;100984.75;5068653;28;20042;-69
2023/12/26 06:53:14;;;;;;;3.38;0.63;;;;;;;18.23;49.14;100983.81;5068710;28;20032;-68
2023/12/26 06:55:40;;;;;;;2.45;0.70;;;;;;;18.30;49.11;100990.25;5068554;28;20473;-69
2023/12/26 06:58:05;;;;;;;2.60;0.60;;;;;;;18.29;49.28;100988.59;5068521;28;20400;-68
2023/12/26 07:00:30;;;;;;;1.95;0.43;;;;;;;18.30;49.04;100989.44;5068736;28;20032;-70
2023/12/26 07:02:56;;;;;;;2.03;0.70;;;;;;;18.37;49.22;101000.31;5066684;28;20033;-69
2023/12/26 07:05:21;;;;;;;2.08;0.50;;;;;;;18.31;49.09;100996.38;5068585;28;20037;-69
2023/12/26 07:07:46;;;;;;;2.40;0.70;;;;;;;18.34;48.96;100996.16;5068038;28;20546;-70
2023/12/26 07:10:12;;;;;;;1.65;0.50;;;;;;;18.34;49.17;100996.16;5068457;28;20449;-68
2023/12/26 07:12:38;;;;;;;3.35;0.70;;;;;;;18.43;48.88;101042.88;5067741;28;20035;-68
2023/12/26 07:15:05;;;;;;;1.65;0.60;;;;;;;18.41;48.74;101034.25;5050242;28;20487;-69
2023/12/26 07:17:32;;;;;;;2.17;0.50;;;;;;;18.46;48.66;101052.38;5067794;28;20034;-69
2023/12/26 07:19:57;;;;;;;2.55;0.75;;;;;;;18.41;49.23;101050.09;5068487;28;20043;-69
2023/12/26 07:22:22;;;;;;;2.10;0.60;;;;;;;18.47;48.89;101057.53;5067957;28;20040;-68
2023/12/26 07:24:48;;;;;;;2.30;0.88;;;;;;;18.35;48.48;101045.31;5068167;28;20033;-68
2023/12/26 07:27:13;;;;;;;3.75;0.88;;;;;;;18.37;48.79;101053.09;5068198;28;20037;-69
2023/12/26 07:29:39;;;;;;;2.30;0.65;;;;;;;18.45;48.64;101075.28;5067768;28;20107;-69
2023/12/26 07:32:04;;;;;;;3.55;0.90;;;;;;;18.46;48.54;101082.22;5067907;28;20396;-69
2023/12/26 07:34:30;;;;;;;1.70;0.70;;;;;;;18.48;48.54;101082.13;5067764;28;20040;-69
2023/12/26 07:36:55;;;;;;;3.95;1.00;;;;;;;18.47;48.52;101073.38;5067873;28;20024;-69
2023/12/26 07:39:20;;;;;;;3.13;0.70;;;;;;;18.41;48.55;101059.81;5067177;28;20039;-69
2023/12/26 07:41:46;;;;;;;2.50;0.60;;;;;;;18.48;48.49;101076.84;5067620;28;20032;-68
2023/12/26 07:44:11;;;;;;;2.55;0.63;;;;;;;18.47;48.37;101089.19;5067481;28;20032;-68
2023/12/26 07:46:36;;;;;;;2.05;0.60;;;;;;;18.45;48.59;101085.84;5067538;28;20056;-69
2023/12/26 07:49:02;;;;;;;2.92;0.77;;;;;;;18.46;48.47;101100.72;5067523;28;20141;-68
2023/12/26 07:51:27;;;;;;;2.58;0.60;;;;;;;18.42;48.56;101096.66;5067486;28;20126;-69
2023/12/26 07:53:53;;;;;;;2.40;0.77;;;;;;;18.38;48.25;101100.47;5067072;28;20028;-70
2023/12/26 07:56:18;;;;;;;3.55;0.70;;;;;;;18.48;48.46;101119.91;5067262;28;20115;-68
2023/12/26 07:58:44;;;;;;;3.42;0.88;;;;;;;18.47;48.17;101128.78;5067028;28;20119;-70
2023/12/26 08:01:10;;;;;;;3.42;0.80;;;;;;;18.47;48.24;101130.59;5067469;28;20032;-70
2023/12/26 08:03:35;;;;;;;3.08;1.10;;;;;;;18.40;48.35;101119.66;5066000;28;20028;-70
2023/12/26 08:06:00;;;;;;;3.05;0.60;;;;;;;18.47;48.14;101134.06;5067114;28;20035;-70
2023/12/26 08:08:26;;;;;;;1.88;0.63;;;;;;;18.45;48.19;101143.91;5067248;28;20025;-70
2023/12/26 08:10:51;;;;;;;3.67;0.95;;;;;;;18.48;48.57;101140.16;5066840;28;20028;-73
2023/12/26 08:13:16;;;;;;;2.13;0.60;;;;;;;18.38;48.59;101126.03;5066540;28;20025;-69
2023/12/26 08:15:42;;;;;;;4.10;0.85;;;;;;;18.46;48.57;101137.66;5066831;28;20115;-68
2023/12/26 08:18:07;;;;;;;2.10;0.60;;;;;;;18.40;48.27;101127.56;5064552;28;20060;-69
2023/12/26 08:20:33;;;;;;;3.63;0.80;;;;;;;18.47;48.29;101149.06;5066992;28;20457;-71
2023/12/26 08:22:59;;;;;;;2.83;0.70;;;;;;;18.39;48.25;101144.38;5065891;28;20044;-69
2023/12/26 08:25:24;;;;;;;3.05;0.77;;;;;;;18.48;48.31;101156.88;5066563;28;20044;-72
2023/12/26 08:27:50;;;;;;;3.53;1.02;;;;;;;18.39;48.20;101140.88;5065299;28;20501;-69
2023/12/26 08:30:16;;;;;;;4.45;0.90;;;;;;;18.41;48.28;101147.72;5066547;28;20119;-72
2023/12/26 08:32:41;;;;;;;4.50;0.70;;;;;;;18.41;48.48;101165.38;5065577;28;20358;-70
2023/12/26 08:35:07;;;;;;;3.22;0.88;;;;;;;18.45;48.31;101180.00;5066376;28;20053;-69
2023/12/26 08:37:32;;;;;;;3.40;0.90;;;;;;;18.50;48.20;101188.41;5065905;28;20032;-69
2023/12/26 08:39:58;;;;;;;2.95;0.73;;;;;;;18.41;48.48;101168.00;5066232;28;20075;-70
2023/12/26 08:42:23;;;;;;;2.90;0.70;;;;;;;18.42;48.43;101189.00;5065563;28;20025;-71
2023/12/26 08:44:48;;;;;;;4.13;0.90;;;;;;;18.37;48.58;101188.50;5066045;28;20036;-71
2023/12/26 08:47:13;;;;;;;3.67;0.82;;;;;;;18.51;48.23;101207.72;5066079;28;20032;-69
2023/12/26 08:49:39;;;;;;;3.58;0.70;;;;;;;18.49;48.50;101211.31;5066228;28;20039;-71
2023/12/26 08:52:05;;;;;;;3.97;0.90;;;;;;;18.53;48.61;101238.31;5066418;28;20142;-72
2023/12/26 08:54:30;;;;;;;4.55;1.05;;;;;;;18.46;48.61;101224.75;5066301;28;20082;-69
2023/12/26 08:56:55;;;;;;;4.18;0.95;;;;;;;18.54;48.66;101225.97;5066354;28;20036;-69
2023/12/26 08:59:21;;;;;;;13.30;1.55;;;;;;;18.53;48.89;101224.28;5065466;28;20047;-71
2023/12/26 09:01:47;;;;;;;3.53;0.93;;;;;;;18.55;49.08;101232.91;5065414;28;20694;-71
2023/12/26 09:04:12;;;;;;;2.88;0.73;;;;;;;18.56;48.92;101221.41;5065001;28;20070;-70
2023/12/26 09:06:37;;;;;;;3.00;0.80;;;;;;;18.56;48.72;101230.16;5064338;28;20483;-73
2023/12/26 09:09:03;;;;;;;3.55;1.00;;;;;;;18.54;48.62;101232.06;5064325;28;20036;-72
2023/12/26 09:11:28;;;;;;;3.22;0.80;;;;;;;18.49;48.64;101232.44;5065950;28;20103;-69
2023/12/26 09:13:54;;;;;;;3.75;0.88;;;;;;;18.50;48.71;101243.84;5066019;28;20080;-72
2023/12/26 09:16:20;;;;;;;3.03;0.85;;;;;;;18.61;48.98;101264.97;5047370;28;20374;-70
2023/12/26 09:18:45;;;;;;;3.72;0.90;;;;;;;18.59;48.76;101258.94;5063505;28;20123;-71
2023/12/26 09:21:10;;;;;;;5.32;1.13;;;;;;;18.59;48.91;101264.22;5065764;28;20116;-70
2023/12/26 09:23:36;;;;;;;3.83;0.75;;;;;;;18.62;48.88;101273.72;5064920;28;20036;-73
2023/12/26 09:26:02;;;;;;;4.57;1.10;;;;;;;18.48;49.07;101253.66;5063741;28;20465;-71
2023/12/26 09:28:28;;;;;;;4.55;0.90;;;;;;;18.54;49.07;101263.75;5065410;28;20028;-72
2023/12/26 09:30:53;;;;;;;3.92;1.00;;;;;;;18.59;48.98;101271.31;5065802;28;20127;-68
2023/12/26 09:33:18;;;;;;;2.80;0.80;;;;;;;18.61;48.82;101286.09;5065853;28;20089;-70
2023/12/26 09:35:44;;;;;;;3.83;1.20;;;;;;;18.61;48.63;101286.09;5064597;28;20082;-72
2023/12/26 09:38:09;;;;;;;5.03;0.95;;;;;;;18.56;48.62;101284.75;5065410;28;20147;-71
2023/12/26 09:40:36;;;;;;;4.22;0.95;;;;;;;18.60;48.75;101297.59;5065310;28;20107;-71
2023/12/26 09:43:02;;;;;;;3.80;1.20;;;;;;;18.60;48.57;101305.53;5066155;28;20074;-70
2023/12/26 09:45:28;;;;;;;4.05;1.02;;;;;;;18.55;48.49;101315.59;5065956;28;20040;-70
2023/12/26 09:47:54;;;;;;;5.65;1.02;;;;;;;18.52;48.48;101310.53;5061247;28;20060;-71
2023/12/26 09:50:20;;;;;;;4.45;1.42;;;;;;;18.52;48.44;101323.75;5049422;28;20369;-70
2023/12/26 09:52:53;;;;;;;3.58;1.08;;;;;;;18.58;48.46;101332.97;5049446;28;20218;-70
2023/12/26 09:55:22;;;;;;;3.92;1.13;;;;;;;18.53;48.49;101332.50;5049271;28;20033;-71
2023/12/26 09:57:48;;;;;;;3.60;0.90;;;;;;;18.51;48.50;101329.97;5049799;28;20033;-71
2023/12/26 10:00:14;;;;;;;3.83;1.08;;;;;;;18.54;48.35;101348.22;5049296;28;20025;-69
2023/12/26 10:02:42;;;;;;;6.05;0.95;;;;;;;18.56;48.32;101354.22;5048633;28;20021;-70
2023/12/26 10:05:07;;;;;;;3.70;0.85;;;;;;;18.46;48.27;101340.88;5049029;28;20424;-71
2023/12/26 10:07:33;;;;;;;4.07;1.20;;;;;;;18.56;48.37;101354.22;5031298;28;20040;-72
2023/12/26 10:09:58;;;;;;;5.05;0.90;;;;;;;18.45;48.46;101341.84;5048273;28;20032;-70
2023/12/26 10:12:30;;;;;;;3.65;0.90;;;;;;;18.55;48.19;101365.75;5048729;28;20148;-71
2023/12/26 10:15:03;;;;;;;3.92;0.90;;;;;;;18.55;48.29;101367.53;5047970;28;20044;-70
2023/12/26 10:17:29;;;;;;;4.30;1.10;;;;;;;18.47;48.05;101357.56;5049050;28;20029;-69
2023/12/26 10:19:58;;;;;;;2.72;0.80;;;;;;;18.55;48.39;101372.81;5047375;28;20037;-69
2023/12/26 10:22:25;;;;;;;4.10;1.25;;;;;;;18.56;48.33;101379.78;5047399;28;20041;-70
2023/12/26 10:24:50;;;;;;;3.67;0.82;;;;;;;18.55;48.20;101381.59;5047647;28;20028;-67
2023/12/26 10:27:16;;;;;;;3.90;1.05;;;;;;;18.55;48.22;101386.00;5049240;28;20402;-70
2023/12/26 10:29:49;;;;;;;5.03;1.30;;;;;;;18.56;48.10;101392.97;5048295;28;20053;-71
2023/12/26 10:32:14;;;;;;;4.25;1.05;;;;;;;18.55;48.03;101400.06;5049904;28;20184;-71
2023/12/26 10:34:39;;;;;;;3.45;0.85;;;;;;;18.53;47.81;101394.03;5050642;28;20063;-73
2023/12/26 10:37:05;;;;;;;4.10;1.15;;;;;;;18.47;47.94;101389.22;5051348;28;20033;-73
2023/12/26 10:39:30;;;;;;;3.17;1.17;;;;;;;18.43;47.56;101380.69;5051707;28;20028;-74
2023/12/26 10:41:57;;;;;;;3.13;1.00;;;;;;;18.43;47.85;101371.94;5050633;28;20040;-72
2023/12/26 10:44:26;;;;;;;4.70;1.30;;;;;;;18.47;47.47;101381.31;5051297;28;20035;-71
2023/12/26 10:47:12;;;;;;;3.92;1.00;;;;;;;18.44;47.63;101368.34;5049233;28;20402;-70
2023/12/26 10:49:41;;;;;;;4.20;1.00;;;;;;;18.48;47.72;101383.84;5071530;28;20051;-70
2023/12/26 10:52:08;;;;;;;3.85;1.27;;;;;;;18.50;47.54;101386.38;5071007;28;20082;-74
2023/12/26 10:54:38;;;;;;;3.67;1.10;;;;;;;18.48;47.73;101372.41;5069025;28;20147;-73
2023/12/26 10:57:05;;;;;;;4.28;1.13;;;;;;;18.51;47.66;101374.00;5068366;28;20033;-75
2023/12/26 13:51:41;;;;;;;4.00;1.08;;;;;;;18.40;46.76;101581.47;5064150;28;20079;-72
2023/12/26 13:54:07;;;;;;;6.75;1.27;;;;;;;18.37;46.59;101573.75;5065438;28;20130;-72
2023/12/26 13:56:32;;;;;;;5.50;1.27;;;;;;;18.31;46.65;101563.69;5063208;28;20060;-73
2023/12/26 13:58:58;;;;;;;5.18;1.25;;;;;;;18.36;46.41;101577.38;5064154;28;20690;-73
2023/12/26 14:01:23;;;;;;;6.10;1.60;;;;;;;18.39;46.56;101578.94;5065297;28;20047;-72
2023/12/26 14:03:50;;;;;;;4.90;1.20;;;;;;;18.30;46.57;101564.63;5063994;28;20386;-73
2023/12/26 14:06:17;;;;;;;4.50;1.20;;;;;;;18.36;46.39;101587.94;5065350;28;20094;-73
2023/12/26 14:08:42;;;;;;;4.43;1.13;;;;;;;18.40;46.48;101593.84;5065747;28;20353;-73